createdAt,value
2023-01-23T08:59:54.502Z,14.20
2023-01-23T09:02:34.776Z,13.77
2023-01-23T09:05:16.944Z,14.70
2023-01-23T09:07:45.775Z,12.77
2023-01-23T09:10:22.861Z,11.57
2023-01-23T09:12:59.288Z,12.05
2023-01-23T11:15:32.553Z,7.33
2023-01-23T11:18:52.567Z,8.27
2023-01-23T11:24:40.361Z,8.43
2023-01-23T11:27:16.509Z,7.47
2023-01-23T11:29:53.157Z,7.22
2023-01-23T11:32:30.050Z,8.38
2023-01-23T11:35:03.281Z,7.70
2023-01-23T11:37:55.666Z,7.20
2023-01-23T11:40:33.532Z,6.90
2023-01-23T11:46:25.309Z,6.73
2023-01-23T11:49:03.207Z,7.05
2023-01-23T11:52:20.163Z,6.20
2023-01-23T11:58:20.739Z,6.32
2023-01-23T12:09:21.273Z,6.63
2023-01-23T12:12:00.119Z,7.35
2023-01-23T12:14:57.608Z,6.47
2023-01-23T12:17:33.658Z,6.28
2023-01-23T12:20:12.015Z,7.68
2023-01-23T12:22:46.424Z,6.30
2023-01-23T12:25:30.440Z,6.90
2023-01-23T12:28:39.487Z,6.50
2023-01-23T12:31:41.153Z,6.30
2023-01-23T12:34:22.215Z,6.00
2023-01-23T12:37:30.521Z,7.13
2023-01-23T12:40:43.590Z,7.20
2023-01-23T12:43:14.212Z,7.15
2023-01-23T12:46:00.859Z,7.55
2023-01-23T12:48:39.966Z,7.32
2023-01-23T12:51:25.201Z,8.10
2023-01-23T12:54:16.680Z,9.05
2023-01-23T12:56:46.274Z,7.93
2023-01-23T13:00:02.981Z,7.72
2023-01-23T13:02:34.973Z,7.47
2023-01-23T13:05:29.056Z,9.43
2023-01-23T13:08:07.137Z,7.85
2023-01-23T13:10:59.879Z,8.70
2023-01-23T13:13:28.670Z,8.15
2023-01-23T13:16:29.990Z,8.40
2023-01-23T13:19:17.928Z,7.22
2023-01-23T13:22:32.305Z,7.88
2023-01-23T13:25:18.423Z,6.72
2023-01-23T13:27:56.940Z,7.95
2023-01-23T13:30:26.629Z,7.03
2023-01-23T13:33:07.059Z,7.20
2023-01-23T13:35:46.059Z,7.20
2023-01-23T13:38:21.939Z,7.22
2023-01-23T13:41:14.518Z,7.63
2023-01-23T13:43:51.085Z,7.63
2023-01-23T14:27:48.013Z,6.88
2023-01-23T14:30:31.812Z,5.85
2023-01-23T14:32:59.581Z,5.53
2023-01-23T14:35:36.041Z,6.65
2023-01-23T14:38:11.559Z,6.35
2023-01-23T14:40:50.295Z,6.47
2023-01-23T14:43:20.137Z,6.40
2023-01-23T14:46:08.258Z,7.13
2023-01-23T14:48:43.511Z,6.03
2023-01-23T14:51:26.011Z,5.65
2023-01-23T14:54:10.256Z,6.15
2023-01-23T14:56:46.405Z,6.50
2023-01-23T14:59:20.573Z,6.40
2023-01-23T15:01:56.391Z,6.35
2023-01-23T15:04:24.750Z,5.60
2023-01-23T15:07:01.675Z,6.05
2023-01-23T15:09:30.688Z,5.65
2023-01-23T15:12:12.217Z,4.97
2023-01-23T15:14:47.823Z,5.95
2023-01-23T15:17:19.186Z,5.55
2023-01-23T15:19:55.514Z,6.40
2023-01-23T15:22:33.741Z,5.20
2023-01-23T15:25:08.880Z,5.63
2023-01-23T15:27:37.194Z,5.88
2023-01-23T15:30:29.101Z,5.68
2023-01-23T15:32:57.586Z,5.55
2023-01-23T15:35:38.633Z,5.97
2023-01-23T15:38:08.608Z,6.72
2023-01-23T15:40:43.266Z,6.13
2023-01-23T15:43:19.338Z,7.85
2023-01-23T15:45:47.174Z,6.60
2023-01-23T15:48:14.502Z,7.03
2023-01-23T15:50:41.978Z,6.22
2023-01-23T15:53:15.854Z,6.45
2023-01-23T15:58:20.757Z,12.95
2023-01-23T16:00:58.483Z,11.27
2023-01-23T16:03:26.036Z,7.40
2023-01-23T16:05:53.533Z,6.82
2023-01-23T16:08:31.225Z,6.90
2023-01-23T16:10:58.446Z,6.90
2023-01-23T16:13:25.804Z,7.45
2023-01-23T16:15:54.054Z,7.93
2023-01-23T16:18:32.251Z,6.80
2023-01-23T16:20:59.984Z,7.68
2023-01-23T16:23:47.115Z,7.05
2023-01-23T16:26:22.451Z,6.90
2023-01-23T16:28:55.370Z,7.07
2023-01-23T16:31:24.950Z,6.85
2023-01-23T16:33:52.155Z,7.90
2023-01-23T16:36:20.033Z,7.32
2023-01-23T16:38:56.670Z,7.22
2023-01-23T16:41:24.105Z,7.15
2023-01-23T16:43:51.784Z,7.85
2023-01-23T16:46:20.145Z,6.80
2023-01-23T16:48:47.518Z,7.63
2023-01-23T16:51:21.905Z,7.47
